Mykolayiv, Ukraine
Current Conditions -  °F | °C
As of 12:00 PM on Tuesday 21 Oct 2014 (Local Time) from UKON Reporting Station
Overcast Overcast  
Wind Chill: 59°   Ceiling: 10000
Heat Index: 59°   Visibility: 6mi
Dew Point: 52°   Wind: 9mph
Humidity: 77%   Direction: 270°W
Pressure: 29.83"   Gusts: NA
Location:  46.97°N, 32°E
Report Text: UKON 210900Z 27004MPS 230V300 9999 FEW033CB OVC100 15/11 Q1010 05090075 NOSIG
Loading
Personal Weather Stations






























Interactive Weather Map
Tropical Storm Tracking
New forecast layout! Learn more

10-Day Weather Forecast

Advertisements
Track Severe Weather on mobile